createdAt,value
2022-08-08T00:02:04.024Z,19.30
2022-08-08T00:04:36.289Z,19.32
2022-08-08T00:07:15.639Z,19.25
2022-08-08T00:09:54.629Z,19.23
2022-08-08T00:12:31.263Z,19.15
2022-08-08T00:15:05.189Z,19.19
2022-08-08T00:17:58.626Z,19.09
2022-08-08T00:20:40.476Z,19.07
2022-08-08T00:23:14.812Z,18.69
2022-08-08T00:25:50.834Z,19.06
2022-08-08T00:28:35.817Z,19.08
2022-08-08T00:32:29.127Z,19.02
2022-08-08T00:34:39.753Z,19.00
2022-08-08T00:37:46.847Z,18.89
2022-08-08T00:41:10.838Z,18.93
2022-08-08T00:44:17.828Z,18.86
2022-08-08T00:47:23.639Z,18.87
2022-08-08T00:50:30.188Z,18.81
2022-08-08T00:53:06.740Z,18.81
2022-08-08T00:56:17.902Z,18.73
2022-08-08T00:59:44.432Z,18.70
2022-08-08T01:04:02.189Z,18.68
2022-08-08T01:06:16.189Z,18.65
2022-08-08T01:09:35.450Z,18.56
2022-08-08T01:12:17.748Z,18.59
2022-08-08T01:15:43.408Z,18.53
2022-08-08T01:18:52.782Z,18.51
2022-08-08T01:22:11.901Z,18.50
2022-08-08T01:25:39.925Z,18.48
2022-08-08T01:28:18.620Z,18.47
2022-08-08T01:31:10.406Z,18.47
2022-08-08T01:34:37.567Z,18.38
2022-08-08T01:37:57.896Z,18.36
2022-08-08T01:40:31.259Z,18.36
2022-08-08T01:43:06.944Z,18.36
2022-08-08T01:45:56.455Z,18.29
2022-08-08T01:48:43.808Z,18.28
2022-08-08T01:53:01.089Z,18.24
2022-08-08T01:55:45.633Z,18.26
2022-08-08T01:57:49.015Z,18.12
2022-08-08T02:00:24.014Z,18.07
2022-08-08T02:03:55.433Z,18.10
2022-08-08T02:06:32.436Z,18.10
2022-08-08T02:09:17.638Z,18.09
2022-08-08T02:11:52.865Z,18.08
2022-08-08T02:14:49.977Z,17.99
2022-08-08T02:17:36.472Z,18.01
2022-08-08T02:21:00.695Z,17.92
2022-08-08T02:23:16.076Z,17.91
2022-08-08T02:25:53.403Z,17.91
2022-08-08T02:28:35.755Z,17.93
2022-08-08T02:31:19.764Z,17.89
2022-08-08T02:34:15.045Z,17.86
2022-08-08T02:37:02.783Z,17.80
2022-08-08T02:39:59.852Z,17.78
2022-08-08T02:44:38.659Z,17.73
2022-08-08T02:46:26.322Z,17.66
2022-08-08T02:49:35.880Z,17.71
2022-08-08T02:52:51.362Z,17.62
2022-08-08T02:55:37.439Z,17.68
2022-08-08T02:58:47.595Z,17.60
2022-08-08T03:02:20.226Z,17.56
2022-08-08T03:05:45.121Z,17.53
2022-08-08T03:08:52.339Z,17.48
2022-08-08T03:12:05.954Z,17.41
2022-08-08T03:15:59.222Z,17.40
2022-08-08T03:18:06.468Z,17.44
2022-08-08T03:20:43.415Z,17.39
2022-08-08T03:23:17.634Z,17.41
2022-08-08T03:25:50.257Z,17.42
2022-08-08T03:28:21.744Z,17.35
2022-08-08T03:31:22.057Z,17.34
2022-08-08T03:33:55.319Z,17.30
2022-08-08T03:36:30.624Z,17.23
2022-08-08T03:39:14.839Z,17.23
2022-08-08T03:42:12.391Z,17.26
2022-08-08T03:44:34.048Z,17.21
2022-08-08T03:47:19.251Z,17.19
2022-08-08T03:49:59.994Z,17.17
2022-08-08T03:52:31.277Z,17.15
2022-08-08T03:55:10.538Z,17.14
2022-08-08T03:58:35.798Z,17.14
2022-08-08T04:01:01.401Z,17.06
2022-08-08T04:03:58.089Z,17.09
2022-08-08T04:06:14.531Z,17.06
2022-08-08T04:08:45.980Z,17.05
2022-08-08T04:11:17.336Z,17.02
2022-08-08T04:14:03.265Z,17.00
2022-08-08T04:16:38.581Z,17.02
2022-08-08T04:19:23.509Z,16.94
2022-08-08T04:21:51.927Z,16.91
2022-08-08T04:24:29.374Z,16.92
2022-08-08T04:27:00.851Z,16.87
2022-08-08T04:29:33.220Z,16.91
2022-08-08T04:32:04.995Z,16.84
2022-08-08T04:34:49.277Z,16.88
2022-08-08T04:37:26.342Z,16.87
2022-08-08T04:40:06.906Z,16.90
2022-08-08T04:42:37.328Z,16.86
2022-08-08T04:45:14.701Z,16.87
2022-08-08T04:47:46.456Z,16.88
2022-08-08T04:50:23.799Z,16.79
2022-08-08T04:53:00.674Z,16.89
2022-08-08T04:55:47.078Z,17.00
2022-08-08T04:58:17.690Z,17.08
2022-08-08T05:00:48.614Z,17.25
2022-08-08T05:03:18.842Z,17.33
2022-08-08T05:06:12.556Z,17.44
2022-08-08T05:08:43.113Z,17.61
2022-08-08T05:11:17.400Z,17.65
2022-08-08T05:13:57.975Z,17.88
2022-08-08T05:16:54.720Z,18.33
2022-08-08T05:20:09.733Z,18.11
2022-08-08T05:22:04.930Z,18.17
2022-08-08T05:24:34.731Z,18.99
2022-08-08T05:27:05.619Z,19.07
2022-08-08T05:29:35.746Z,19.61
2022-08-08T05:32:06.624Z,19.58
2022-08-08T05:34:37.033Z,19.87
2022-08-08T05:37:15.900Z,20.25
2022-08-08T05:39:51.102Z,20.36
2022-08-08T05:42:25.889Z,20.29
2022-08-08T05:44:57.410Z,20.59
2022-08-08T05:47:41.542Z,20.58
2022-08-08T05:50:18.687Z,20.62
2022-08-08T05:52:46.491Z,20.24
2022-08-08T05:55:14.376Z,19.06
2022-08-08T05:58:05.554Z,19.06
2022-08-08T06:00:34.162Z,19.32
2022-08-08T06:03:17.268Z,18.90
2022-08-08T06:05:58.763Z,19.11
2022-08-08T06:08:34.549Z,19.52
2022-08-08T06:11:04.361Z,19.15
2022-08-08T06:13:36.587Z,18.80
2022-08-08T06:16:19.048Z,18.58
2022-08-08T06:18:50.193Z,18.93
2022-08-08T06:21:32.671Z,18.28
2022-08-08T06:24:13.812Z,18.52
2022-08-08T06:26:57.629Z,18.77
2022-08-08T06:29:59.549Z,18.62
2022-08-08T06:32:29.927Z,18.38
2022-08-08T06:35:57.144Z,18.45
2022-08-08T06:37:56.025Z,18.90
2022-08-08T06:40:30.082Z,18.82
2022-08-08T06:43:05.667Z,19.03
2022-08-08T06:45:36.366Z,18.86
2022-08-08T06:48:06.746Z,18.80
2022-08-08T06:50:38.817Z,19.02
2022-08-08T06:53:10.076Z,19.07
2022-08-08T06:55:47.082Z,19.00
2022-08-08T06:58:15.291Z,19.29
2022-08-08T07:00:50.221Z,18.95
2022-08-08T07:03:52.765Z,19.11
2022-08-08T07:06:32.667Z,19.32
2022-08-08T07:09:15.262Z,19.70
2022-08-08T07:11:51.041Z,19.55
2022-08-08T07:14:22.575Z,19.77
2022-08-08T07:17:09.383Z,19.63
2022-08-08T07:19:56.014Z,19.75
2022-08-08T07:22:38.583Z,19.82
2022-08-08T07:25:10.764Z,20.05
2022-08-08T07:28:01.732Z,19.65
2022-08-08T07:30:34.947Z,20.16
2022-08-08T07:33:03.003Z,19.88
2022-08-08T07:35:35.526Z,20.16
2022-08-08T07:38:18.348Z,20.34
2022-08-08T07:40:55.153Z,20.43
2022-08-08T07:43:35.307Z,20.47
2022-08-08T07:46:24.125Z,20.48
2022-08-08T07:48:53.754Z,20.55
2022-08-08T07:51:45.239Z,21.08
2022-08-08T07:54:26.633Z,21.01
2022-08-08T07:57:04.290Z,20.83
2022-08-08T07:59:46.191Z,21.42
2022-08-08T08:02:37.147Z,21.19
2022-08-08T08:05:15.342Z,21.30
2022-08-08T08:07:53.077Z,21.53
2022-08-08T08:10:30.444Z,22.15
2022-08-08T08:13:25.497Z,21.94
2022-08-08T08:16:11.369Z,21.77
2022-08-08T08:18:52.171Z,21.44
2022-08-08T08:21:44.343Z,22.26
2022-08-08T08:24:18.630Z,22.22
2022-08-08T08:26:52.579Z,22.11
2022-08-08T08:29:22.472Z,22.08
2022-08-08T08:31:53.964Z,22.68
2022-08-08T08:34:32.496Z,22.63
2022-08-08T08:37:03.491Z,22.16
2022-08-08T08:39:59.793Z,22.58
2022-08-08T08:42:29.285Z,22.73
2022-08-08T08:45:21.097Z,22.51
2022-08-08T08:47:54.593Z,22.27
2022-08-08T08:50:34.004Z,22.47
2022-08-08T08:53:27.666Z,22.07
2022-08-08T08:55:55.847Z,22.30
2022-08-08T08:58:32.895Z,22.98
2022-08-08T09:01:08.904Z,22.64
2022-08-08T09:03:47.562Z,22.59
2022-08-08T09:06:26.452Z,22.96
2022-08-08T09:09:07.153Z,22.77
2022-08-08T09:11:47.768Z,23.56
2022-08-08T09:14:27.056Z,23.10
2022-08-08T09:16:55.838Z,23.28
2022-08-08T09:22:01.166Z,23.07
2022-08-08T09:22:12.403Z,23.29
2022-08-08T09:24:48.123Z,23.52
2022-08-08T09:27:56.844Z,23.04
2022-08-08T09:30:17.534Z,23.39
2022-08-08T09:33:54.428Z,23.09
2022-08-08T09:35:48.863Z,23.59
2022-08-08T09:38:32.810Z,23.53
2022-08-08T09:41:06.359Z,23.03
2022-08-08T09:44:05.340Z,23.36
2022-08-08T09:46:35.731Z,23.18
2022-08-08T09:49:41.057Z,23.31
2022-08-08T09:52:07.109Z,23.56
2022-08-08T09:54:44.010Z,23.77
2022-08-08T09:57:16.978Z,23.75
2022-08-08T10:00:14.644Z,23.49
2022-08-08T10:02:40.505Z,23.63
2022-08-08T10:05:14.580Z,23.94
2022-08-08T10:07:59.959Z,23.64
2022-08-08T10:10:31.845Z,24.43
2022-08-08T10:13:06.075Z,23.56
2022-08-08T10:16:01.005Z,23.73
2022-08-08T10:18:31.473Z,23.96
2022-08-08T10:21:23.240Z,23.99
2022-08-08T10:23:58.298Z,24.48
2022-08-08T10:26:58.615Z,24.57
2022-08-08T10:29:30.608Z,24.32
2022-08-08T10:32:37.317Z,24.44
2022-08-08T10:35:10.673Z,24.83
2022-08-08T10:37:43.185Z,24.24
2022-08-08T10:40:17.168Z,24.07
2022-08-08T10:42:49.448Z,24.36
2022-08-08T10:45:17.986Z,24.29
2022-08-08T10:47:55.602Z,24.53
2022-08-08T10:50:25.944Z,24.60
2022-08-08T10:53:02.465Z,24.58
2022-08-08T10:55:40.494Z,24.29
2022-08-08T10:58:11.982Z,24.23
2022-08-08T11:00:53.053Z,24.74
2022-08-08T11:04:00.688Z,23.95
2022-08-08T11:06:31.909Z,24.41
2022-08-08T11:09:09.591Z,24.71
2022-08-08T11:12:04.871Z,24.47
2022-08-08T11:14:32.570Z,24.43
2022-08-08T11:17:00.189Z,24.78
2022-08-08T11:19:31.734Z,24.92
2022-08-08T11:22:04.104Z,25.20
2022-08-08T11:24:35.867Z,24.59
2022-08-08T11:27:19.294Z,24.88
2022-08-08T11:30:19.564Z,24.43
2022-08-08T11:32:47.338Z,25.48
2022-08-08T11:35:27.286Z,25.10
2022-08-08T11:38:35.086Z,25.07
2022-08-08T11:40:54.856Z,24.82
2022-08-08T11:43:25.919Z,25.06
2022-08-08T11:46:17.366Z,25.24
2022-08-08T11:48:47.841Z,25.19
2022-08-08T11:51:38.969Z,25.40
2022-08-08T11:54:32.163Z,25.16
2022-08-08T11:57:17.087Z,25.00
2022-08-08T12:00:01.346Z,25.51
2022-08-08T12:02:33.471Z,24.98
2022-08-08T12:05:12.440Z,25.21
2022-08-08T12:07:53.207Z,25.39
2022-08-08T12:10:23.071Z,25.18
2022-08-08T12:12:54.696Z,25.73
2022-08-08T12:15:29.409Z,26.06
2022-08-08T12:17:57.217Z,25.49
2022-08-08T12:20:38.249Z,25.51
2022-08-08T12:23:25.152Z,25.51
2022-08-08T12:25:56.697Z,25.47
2022-08-08T12:28:24.819Z,25.19
2022-08-08T12:30:53.440Z,25.38
2022-08-08T12:33:37.253Z,25.32
2022-08-08T12:36:12.150Z,25.36
2022-08-08T12:38:55.544Z,25.56
2022-08-08T12:41:33.781Z,25.80
2022-08-08T12:44:07.681Z,25.23
2022-08-08T12:46:35.861Z,25.54
2022-08-08T12:49:29.567Z,25.55
2022-08-08T12:52:00.063Z,25.82
2022-08-08T12:54:36.008Z,25.60
2022-08-08T12:57:15.173Z,25.90
2022-08-08T13:00:05.828Z,25.60
2022-08-08T13:02:51.841Z,26.00
2022-08-08T13:05:26.720Z,25.67
2022-08-08T13:08:18.495Z,25.99
2022-08-08T13:10:56.871Z,25.68
2022-08-08T13:13:35.352Z,26.01
2022-08-08T13:16:18.762Z,25.85
2022-08-08T13:18:55.754Z,25.78
2022-08-08T13:21:49.094Z,25.81
2022-08-08T13:24:18.514Z,26.23
2022-08-08T13:27:02.755Z,26.09
2022-08-08T13:29:40.574Z,25.80
2022-08-08T13:32:10.776Z,25.98
2022-08-08T13:34:40.475Z,26.05
2022-08-08T13:37:11.076Z,26.20
2022-08-08T13:39:50.335Z,26.21
2022-08-08T13:42:20.940Z,25.99
2022-08-08T13:44:55.582Z,25.86
2022-08-08T13:47:24.109Z,26.09
2022-08-08T13:50:39.819Z,26.16
2022-08-08T13:52:48.508Z,26.33
2022-08-08T13:55:29.299Z,25.98
2022-08-08T13:58:08.103Z,26.20
2022-08-08T14:00:45.974Z,26.46
2022-08-08T14:03:46.989Z,26.40
2022-08-08T14:06:09.312Z,26.01
2022-08-08T14:08:58.323Z,26.16
2022-08-08T14:11:28.325Z,26.46
2022-08-08T14:14:00.382Z,26.04
2022-08-08T14:16:29.808Z,26.28
2022-08-08T14:18:58.850Z,25.87
2022-08-08T14:21:40.566Z,26.47
2022-08-08T14:24:30.685Z,26.41
2022-08-08T14:26:58.502Z,26.29
2022-08-08T14:29:30.190Z,26.22
2022-08-08T14:32:09.037Z,26.38
2022-08-08T14:34:43.207Z,26.14
2022-08-08T14:37:12.624Z,26.25
2022-08-08T14:39:48.276Z,26.46
2022-08-08T14:42:17.242Z,26.22
2022-08-08T14:44:57.460Z,26.35
2022-08-08T14:47:30.344Z,26.51
2022-08-08T14:50:15.064Z,26.35
2022-08-08T14:52:51.819Z,26.19
2022-08-08T14:55:22.765Z,26.39
2022-08-08T15:00:58.158Z,26.67
2022-08-08T15:03:26.026Z,26.51
2022-08-08T15:05:57.829Z,26.59
2022-08-08T15:08:35.185Z,26.52
2022-08-08T15:11:10.216Z,26.52
2022-08-08T15:14:01.797Z,26.46
2022-08-08T15:16:29.670Z,26.56
2022-08-08T15:19:02.965Z,26.57
2022-08-08T15:21:30.621Z,26.63
2022-08-08T15:23:58.801Z,26.61
2022-08-08T15:26:28.981Z,26.47
2022-08-08T15:28:57.115Z,26.44
2022-08-08T15:32:02.567Z,26.52
2022-08-08T15:34:29.919Z,26.46
2022-08-08T15:37:02.339Z,26.44
2022-08-08T15:39:37.432Z,26.47
2022-08-08T15:42:13.046Z,26.44
2022-08-08T15:44:46.755Z,26.34
2022-08-08T15:47:15.664Z,26.66
2022-08-08T15:49:49.010Z,26.63
2022-08-08T15:52:20.771Z,26.63
2022-08-08T15:54:51.819Z,26.66
2022-08-08T15:57:21.342Z,26.57
2022-08-08T16:00:06.656Z,26.37
2022-08-08T16:02:37.518Z,26.61
2022-08-08T16:05:15.533Z,26.69
2022-08-08T16:07:52.078Z,26.69
2022-08-08T16:13:03.741Z,26.39
2022-08-08T16:13:27.907Z,26.40
2022-08-08T16:16:13.173Z,26.46
2022-08-08T16:18:53.197Z,26.48
2022-08-08T16:21:27.908Z,26.68
2022-08-08T16:23:57.778Z,26.52
2022-08-08T16:26:34.479Z,26.42
2022-08-08T16:29:08.068Z,26.42
2022-08-08T16:31:40.265Z,26.49
2022-08-08T16:34:08.926Z,26.37
2022-08-08T16:36:38.297Z,26.50
2022-08-08T16:39:16.997Z,26.46
2022-08-08T16:42:01.191Z,26.42
2022-08-08T16:44:33.693Z,26.49
2022-08-08T16:47:16.943Z,26.32
2022-08-08T16:49:44.645Z,26.29
2022-08-08T16:55:18.037Z,26.43
2022-08-08T16:55:33.806Z,26.46
2022-08-08T16:58:13.074Z,26.32
2022-08-08T17:00:42.995Z,26.14
2022-08-08T17:03:18.175Z,26.26
2022-08-08T17:05:54.103Z,26.23
2022-08-08T17:08:23.516Z,26.23
2022-08-08T17:10:57.787Z,26.21
2022-08-08T17:13:27.593Z,26.00
2022-08-08T17:16:15.290Z,26.09
2022-08-08T17:18:45.525Z,26.07
2022-08-08T17:21:13.870Z,26.09
2022-08-08T17:24:00.861Z,25.99
2022-08-08T17:26:30.909Z,26.01
2022-08-08T17:28:58.925Z,25.99
2022-08-08T17:31:45.126Z,25.92
2022-08-08T17:34:49.558Z,25.85
2022-08-08T17:37:03.740Z,25.84
2022-08-08T17:40:04.496Z,25.81
2022-08-08T17:42:21.750Z,25.70
2022-08-08T17:44:52.493Z,25.65
2022-08-08T17:47:24.372Z,25.65
2022-08-08T17:50:00.759Z,25.54
2022-08-08T17:52:30.185Z,25.48
2022-08-08T17:54:59.826Z,25.46
2022-08-08T17:57:28.907Z,25.39
2022-08-08T18:00:03.560Z,25.43
2022-08-08T18:02:31.175Z,25.27
2022-08-08T18:05:00.971Z,25.17
2022-08-08T18:08:02.608Z,25.21
2022-08-08T18:10:31.666Z,25.08
2022-08-08T18:13:01.775Z,24.93
2022-08-08T18:15:31.279Z,24.82
2022-08-08T18:18:09.188Z,24.77
2022-08-08T18:20:55.347Z,24.78
2022-08-08T18:23:27.572Z,24.53
2022-08-08T18:26:01.475Z,24.71
2022-08-08T18:28:34.853Z,24.76
2022-08-08T18:31:19.634Z,24.65
2022-08-08T18:34:11.746Z,24.53
2022-08-08T18:36:35.986Z,24.63
2022-08-08T18:39:04.886Z,24.44
2022-08-08T18:41:51.216Z,24.58
2022-08-08T18:44:22.606Z,24.46
2022-08-08T18:46:58.041Z,24.41
2022-08-08T18:49:32.254Z,24.26
2022-08-08T18:52:08.534Z,24.05
2022-08-08T18:55:00.823Z,24.22
2022-08-08T18:57:40.817Z,24.25
2022-08-08T19:00:16.941Z,23.99
2022-08-08T19:02:56.579Z,24.06
2022-08-08T19:05:30.633Z,24.07
2022-08-08T19:08:10.183Z,23.95
2022-08-08T19:10:54.594Z,23.98
2022-08-08T19:13:52.570Z,23.99
2022-08-08T19:16:19.163Z,23.77
2022-08-08T19:18:53.164Z,23.85
2022-08-08T19:21:33.206Z,22.62
2022-08-08T19:24:05.721Z,23.56
2022-08-08T19:26:37.279Z,23.62
2022-08-08T19:29:08.340Z,23.69
2022-08-08T19:31:36.625Z,23.55
2022-08-08T19:34:36.660Z,23.54
2022-08-08T19:36:58.932Z,23.61
2022-08-08T19:39:30.741Z,23.36
2022-08-08T19:42:03.798Z,23.41
2022-08-08T19:44:45.448Z,23.28
2022-08-08T19:47:23.940Z,22.58
2022-08-08T19:49:59.779Z,22.82
2022-08-08T19:52:35.373Z,23.13
2022-08-08T19:55:09.615Z,22.96
2022-08-08T19:57:41.248Z,22.90
2022-08-08T20:00:29.187Z,22.67
2022-08-08T20:02:58.745Z,22.82
2022-08-08T20:06:14.153Z,23.03
2022-08-08T20:08:32.159Z,22.88
2022-08-08T20:11:01.387Z,22.67
2022-08-08T20:14:32.759Z,22.32
2022-08-08T20:16:23.266Z,22.87
2022-08-08T20:19:01.489Z,22.87
2022-08-08T20:21:32.074Z,22.79
2022-08-08T20:24:07.688Z,22.56
2022-08-08T20:26:41.825Z,22.57
2022-08-08T20:29:15.230Z,22.54
2022-08-08T20:32:02.703Z,22.81
2022-08-08T20:34:36.871Z,22.71
2022-08-08T20:37:15.398Z,22.63
2022-08-08T20:39:52.074Z,22.46
2022-08-08T20:42:28.151Z,22.60
2022-08-08T20:45:00.221Z,22.62
2022-08-08T20:47:36.375Z,22.59
2022-08-08T20:50:10.160Z,22.55
2022-08-08T20:52:39.610Z,22.70
2022-08-08T20:55:22.397Z,22.23
2022-08-08T20:57:52.514Z,21.97
2022-08-08T21:00:20.925Z,22.01
2022-08-08T21:02:53.187Z,22.37
2022-08-08T21:05:21.547Z,21.99
2022-08-08T21:08:33.413Z,22.52
2022-08-08T21:10:40.835Z,21.86
2022-08-08T21:13:08.965Z,22.24
2022-08-08T21:16:05.483Z,21.88
2022-08-08T21:18:28.039Z,21.81
2022-08-08T21:20:56.605Z,21.92
2022-08-08T21:23:58.690Z,22.21
2022-08-08T21:26:13.422Z,21.97
2022-08-08T21:28:55.841Z,22.13
2022-08-08T21:31:53.451Z,22.08
2022-08-08T21:34:20.066Z,22.25
2022-08-08T21:36:49.382Z,21.88
2022-08-08T21:39:17.582Z,22.18
2022-08-08T21:41:53.912Z,22.30
2022-08-08T21:44:27.216Z,22.14
2022-08-08T21:48:06.529Z,22.17
2022-08-08T21:49:46.655Z,22.24
2022-08-08T21:54:33.263Z,21.99
2022-08-08T21:55:04.330Z,22.01
2022-08-08T21:58:05.202Z,21.87
2022-08-08T22:00:40.537Z,22.05
2022-08-08T22:03:11.206Z,22.10
2022-08-08T22:05:48.370Z,22.12
2022-08-08T22:08:16.503Z,22.10
2022-08-08T22:10:52.768Z,22.06
2022-08-08T22:13:22.471Z,22.00
2022-08-08T22:15:59.747Z,21.99
2022-08-08T22:18:30.955Z,21.95
2022-08-08T22:21:14.524Z,21.92
2022-08-08T22:23:50.254Z,21.90
2022-08-08T22:26:29.116Z,21.88
2022-08-08T22:29:13.892Z,21.86
2022-08-08T22:31:58.364Z,21.80
2022-08-08T22:34:31.565Z,21.79
2022-08-08T22:37:03.919Z,21.75
2022-08-08T22:39:46.297Z,21.69
2022-08-08T22:42:27.098Z,21.67
2022-08-08T22:44:55.827Z,21.63
2022-08-08T22:47:24.348Z,21.61
2022-08-08T22:50:04.950Z,21.59
2022-08-08T22:54:27.493Z,21.54
2022-08-08T22:55:58.263Z,21.51
2022-08-08T22:58:27.077Z,21.47
2022-08-08T23:01:00.276Z,21.46
2022-08-08T23:03:34.240Z,21.44
2022-08-08T23:06:17.086Z,21.41
2022-08-08T23:08:55.061Z,21.37
2022-08-08T23:11:58.173Z,21.37
2022-08-08T23:14:12.452Z,21.26
2022-08-08T23:16:44.182Z,21.25
2022-08-08T23:19:15.308Z,21.25
2022-08-08T23:21:46.882Z,21.23
2022-08-08T23:24:22.193Z,21.18
2022-08-08T23:26:55.646Z,21.12
2022-08-08T23:29:24.782Z,21.10
2022-08-08T23:31:53.291Z,21.05
2022-08-08T23:34:24.144Z,21.02
2022-08-08T23:36:57.869Z,20.99
2022-08-08T23:39:32.054Z,20.97
2022-08-08T23:42:09.535Z,20.90
2022-08-08T23:44:38.583Z,20.90
2022-08-08T23:49:04.184Z,20.92
2022-08-08T23:50:01.152Z,20.85
2022-08-08T23:52:33.996Z,20.81
2022-08-08T23:55:14.734Z,20.77
2022-08-08T23:57:53.004Z,20.72
